Ziguinchor, Senegal
Current Conditions -  °F | °C
As of 2:00 PM on Saturday 25 Oct 2014 (Local Time) from GOGG Reporting Station
Broken Clouds Broken Clouds  
Wind Chill: 33°   Ceiling: 1600
Heat Index: 42°   Visibility: 6mi
Dew Point: 26°   Wind: 2mph
Humidity: 66%   Direction: NA
Pressure: 29.88"   Gusts: NA
Location:  12.59°N, 16.29°W
Report Text: GOGG 251400Z VRB02KT 9999 BKN016TCU SCT130 33/26 Q1012
Loading
Personal Weather Stations






























Interactive Weather Map
Tropical Storm Tracking
New forecast layout! Learn more

10-Day Weather Forecast

Advertisements
Track Severe Weather on mobile